Time;durP1;ratioP1;P1;durP2;ratioP2;P2;SDS_P1;SDS_P2;PMS_P1;PMS_P2;Temp;Humidity;BMP_temperature;BMP_pressure;BME280_temperature;BME280_humidity;BME280_pressure;Samples;Min_cycle;Max_cycle;Signal;HPM_P1;HPM_P2
2022/05/06 00:01:29;;;;;;;20.30;11.85;;;;;;;12.01;77.65;102691.63;5068303;28;20036;-80
2022/05/06 00:03:55;;;;;;;21.85;12.32;;;;;;;12.01;78.10;102686.38;5050121;28;20032;-81
2022/05/06 00:06:20;;;;;;;21.85;12.13;;;;;;;12.00;77.96;102686.38;5059199;28;20048;-80
2022/05/06 00:08:46;;;;;;;19.45;12.10;;;;;;;11.99;78.13;102688.16;5055134;28;20348;-80
2022/05/06 00:11:12;;;;;;;22.52;11.18;;;;;;;12.00;78.28;102699.53;5056392;28;20262;-80
2022/05/06 00:13:37;;;;;;;21.58;11.35;;;;;;;11.98;78.15;102689.03;5050353;28;20051;-80
2022/05/06 00:16:06;;;;;;;24.98;11.93;;;;;;;11.97;77.91;102683.81;5077216;28;20236;-80
2022/05/06 00:18:31;;;;;;;24.92;12.60;;;;;;;11.97;78.17;102682.06;5054606;28;20224;-80
2022/05/06 00:20:57;;;;;;;22.10;11.65;;;;;;;11.97;78.25;102684.69;5060257;28;20036;-80
2022/05/06 00:23:23;;;;;;;23.48;11.55;;;;;;;11.97;78.36;102686.44;5051959;28;20113;-80
2022/05/06 00:25:49;;;;;;;26.20;13.30;;;;;;;11.97;78.36;102686.44;5063418;28;20068;-81
2022/05/06 00:28:15;;;;;;;28.02;13.65;;;;;;;11.96;78.78;102682.09;5041652;28;20087;-80
2022/05/06 00:30:41;;;;;;;23.95;13.27;;;;;;;11.95;78.81;102675.09;5065396;28;20071;-80
2022/05/06 00:33:09;;;;;;;22.83;11.82;;;;;;;11.94;78.59;102676.88;5067985;28;20012;-80
2022/05/06 00:35:35;;;;;;;22.73;12.02;;;;;;;11.94;78.62;102678.63;5045566;28;20059;-80
2022/05/06 00:38:00;;;;;;;26.25;12.90;;;;;;;11.93;78.81;102684.75;5049921;28;20017;-80
2022/05/06 00:40:25;;;;;;;24.65;12.40;;;;;;;11.93;78.86;102671.63;5059458;28;20039;-80
2022/05/06 00:42:51;;;;;;;26.15;13.20;;;;;;;11.91;78.66;102674.28;5071083;28;20262;-80
2022/05/06 00:45:17;;;;;;;26.02;12.75;;;;;;;11.91;78.58;102669.03;5018255;28;20115;-80
2022/05/06 00:47:43;;;;;;;24.98;13.20;;;;;;;11.90;79.11;102669.94;5044777;28;20076;-80
2022/05/06 00:50:09;;;;;;;25.23;12.20;;;;;;;11.90;78.74;102664.69;5069236;28;20036;-81
2022/05/06 00:52:36;;;;;;;25.10;12.15;;;;;;;11.89;78.53;102671.63;5058974;28;20123;-80
2022/05/06 00:55:02;;;;;;;25.98;12.48;;;;;;;11.88;78.44;102666.44;5053812;28;20285;-80
2022/05/06 00:57:30;;;;;;;26.02;12.35;;;;;;;11.89;78.79;102683.91;5062652;28;20027;-80
2022/05/06 01:02:39;;;;;;;26.65;12.45;;;;;;;11.87;78.72;102683.94;5049397;28;20362;-80
2022/05/06 01:05:05;;;;;;;25.80;12.43;;;;;;;11.87;78.89;102675.19;5035359;28;20033;-80
2022/05/06 01:07:31;;;;;;;23.70;11.95;;;;;;;11.85;78.57;102677.00;5057849;28;20033;-80
2022/05/06 01:09:57;;;;;;;20.55;11.30;;;;;;;11.84;78.59;102670.88;5069414;28;20046;-80
2022/05/06 01:12:22;;;;;;;23.20;11.70;;;;;;;11.85;78.86;102679.63;5059430;28;20127;-80
2022/05/06 01:14:47;;;;;;;25.08;12.55;;;;;;;11.85;79.19;102682.25;5051236;28;20040;-80
2022/05/06 01:17:14;;;;;;;24.45;12.57;;;;;;;11.84;78.91;102676.13;5065699;28;20025;-80
2022/05/06 01:19:39;;;;;;;30.40;13.80;;;;;;;11.84;79.41;102677.88;5034660;28;20071;-81
2022/05/06 01:22:05;;;;;;;28.75;13.60;;;;;;;11.83;79.36;102682.25;5033482;28;20025;-80
2022/05/06 01:24:31;;;;;;;29.95;14.63;;;;;;;11.81;79.36;102677.94;5044450;28;20160;-80
2022/05/06 01:27:00;;;;;;;32.67;14.48;;;;;;;11.80;79.19;102684.94;5041123;28;20035;-81
2022/05/06 01:29:27;;;;;;;32.72;15.75;;;;;;;11.79;79.58;102677.97;5062480;28;20048;-80
2022/05/06 01:31:53;;;;;;;32.55;15.60;;;;;;;11.80;79.59;102684.06;5067179;28;20382;-80
2022/05/06 01:34:22;;;;;;;37.35;15.88;;;;;;;11.79;79.50;102680.59;5052866;28;20134;-80
2022/05/06 01:36:51;;;;;;;35.78;16.35;;;;;;;11.78;79.61;102681.47;5068929;28;20037;-80
2022/05/06 01:39:20;;;;;;;33.42;15.98;;;;;;;11.77;79.80;102682.38;5072201;28;20340;-80
2022/05/06 01:41:51;;;;;;;33.47;15.57;;;;;;;11.79;80.05;102684.94;5050460;28;20255;-80
2022/05/06 01:44:19;;;;;;;31.63;15.40;;;;;;;11.77;80.00;102678.84;5052167;28;20228;-80
2022/05/06 01:46:45;;;;;;;27.05;14.52;;;;;;;11.77;79.86;102678.84;5073106;28;20341;-80
2022/05/06 01:49:14;;;;;;;28.05;14.02;;;;;;;11.76;80.07;102685.88;5065762;28;20075;-80
2022/05/06 01:51:42;;;;;;;24.35;12.30;;;;;;;11.75;79.46;102692.03;5058396;28;20033;-80
2022/05/06 01:54:08;;;;;;;25.10;13.23;;;;;;;11.76;79.68;102687.63;5064967;28;20171;-80
2022/05/06 01:56:33;;;;;;;21.90;11.80;;;;;;;11.74;79.92;102687.66;5074597;28;20056;-80
2022/05/06 01:58:59;;;;;;;25.70;13.15;;;;;;;11.73;79.98;102688.53;5063152;28;20091;-80
2022/05/06 02:01:24;;;;;;;20.00;11.20;;;;;;;11.72;79.98;102689.44;5061963;28;20386;-80
2022/05/06 02:06:34;;;;;;;18.20;10.95;;;;;;;11.68;80.29;102686.00;5042625;28;20031;-80
2022/05/06 02:08:59;;;;;;;16.98;9.77;;;;;;;11.68;80.52;102687.78;5037612;28;20029;-80
2022/05/06 02:11:24;;;;;;;13.75;9.10;;;;;;;11.67;80.12;102686.88;5056171;28;20189;-80
2022/05/06 02:13:52;;;;;;;16.20;10.00;;;;;;;11.66;80.10;102684.28;5061861;28;20419;-80
2022/05/06 02:16:17;;;;;;;14.60;9.00;;;;;;;11.65;80.40;102682.56;5053853;28;20036;-80
2022/05/06 02:18:43;;;;;;;14.80;9.13;;;;;;;11.64;80.47;102686.06;5049570;28;20355;-80
2022/05/06 02:21:08;;;;;;;13.98;8.77;;;;;;;11.63;80.37;102673.84;5061406;28;20082;-80
2022/05/06 02:23:34;;;;;;;12.40;8.43;;;;;;;11.61;80.04;102681.75;5053478;28;20040;-80
2022/05/06 02:26:00;;;;;;;15.73;9.23;;;;;;;11.61;80.37;102681.75;5015576;28;20029;-80
2022/05/06 02:28:26;;;;;;;11.50;7.90;;;;;;;11.61;80.00;102687.00;5068312;28;20068;-80
2022/05/06 02:33:36;;;;;;;13.00;8.07;;;;;;;11.59;80.56;102683.53;5079019;28;20101;-80
2022/05/06 02:36:02;;;;;;;11.68;7.85;;;;;;;11.59;80.34;102682.63;5046292;28;20036;-79
2022/05/06 02:38:28;;;;;;;11.60;8.15;;;;;;;11.59;80.16;102685.25;5074054;28;20287;-80
2022/05/06 02:40:55;;;;;;;12.82;8.40;;;;;;;11.58;80.29;102688.78;5061321;28;20037;-80
2022/05/06 02:43:20;;;;;;;11.27;7.47;;;;;;;11.57;80.27;102687.94;5056655;28;20028;-80
2022/05/06 02:45:45;;;;;;;11.75;7.75;;;;;;;11.55;79.80;102692.34;5036703;28;20354;-80
2022/05/06 02:48:11;;;;;;;12.20;7.85;;;;;;;11.53;79.85;102696.72;5078712;28;20090;-80
2022/05/06 02:50:37;;;;;;;11.07;7.93;;;;;;;11.53;79.90;102694.09;5061443;28;20270;-80
2022/05/06 02:53:04;;;;;;;11.18;7.72;;;;;;;11.52;79.82;102695.88;5076789;28;20036;-80
2022/05/06 02:55:29;;;;;;;10.80;8.15;;;;;;;11.49;79.70;102697.66;5044053;28;20312;-79
2022/05/06 02:57:55;;;;;;;9.95;7.53;;;;;;;11.46;79.91;102689.84;5071700;28;20032;-80
2022/05/06 03:00:20;;;;;;;8.77;6.88;;;;;;;11.45;79.46;102685.50;5070192;28;20036;-80
2022/05/06 03:02:46;;;;;;;9.75;7.95;;;;;;;11.45;79.37;102695.97;5065226;28;20221;-80
2022/05/06 03:05:12;;;;;;;9.60;7.60;;;;;;;11.42;78.76;102691.63;5043573;28;20087;-80
2022/05/06 03:07:39;;;;;;;10.52;8.15;;;;;;;11.40;79.35;102690.78;5017252;28;20052;-80
2022/05/06 03:10:05;;;;;;;8.50;7.00;;;;;;;11.39;79.18;102686.44;5043406;28;20032;-80
2022/05/06 03:12:31;;;;;;;9.57;7.68;;;;;;;11.39;79.16;102689.06;5052523;28;20037;-80
2022/05/06 03:14:58;;;;;;;8.70;6.97;;;;;;;11.40;79.53;102689.94;5036727;28;20024;-80
2022/05/06 03:17:23;;;;;;;8.07;6.80;;;;;;;11.40;79.06;102684.69;5077919;28;20032;-80
2022/05/06 03:19:49;;;;;;;9.02;6.88;;;;;;;11.39;79.42;102690.81;5041835;28;20033;-80
2022/05/06 03:22:16;;;;;;;10.70;6.85;;;;;;;11.37;79.41;102679.47;5053546;28;20024;-80
2022/05/06 03:24:43;;;;;;;7.68;6.70;;;;;;;11.34;79.69;102680.41;5041840;28;20037;-80
2022/05/06 03:27:59;;;;;;;8.73;7.10;;;;;;;11.33;79.74;102676.91;5049449;28;20045;-80
2022/05/06 03:29:54;;;;;;;7.30;6.38;;;;;;;11.29;79.73;102680.44;5054491;28;20351;-80
2022/05/06 03:32:19;;;;;;;6.63;5.93;;;;;;;11.28;79.51;102683.97;5055092;28;20237;-80
2022/05/06 03:34:45;;;;;;;6.15;5.55;;;;;;;11.27;79.08;102686.63;5059515;28;20064;-80
2022/05/06 03:37:10;;;;;;;6.57;5.93;;;;;;;11.28;78.80;102688.38;5078174;28;20039;-80
2022/05/06 03:39:36;;;;;;;6.72;6.03;;;;;;;11.27;78.83;102687.47;5070690;28;20040;-80
2022/05/06 03:42:01;;;;;;;6.50;5.90;;;;;;;11.25;78.43;102685.78;5075504;28;20339;-80
2022/05/06 03:44:27;;;;;;;6.65;6.03;;;;;;;11.24;78.22;102682.31;5065189;28;20105;-80
2022/05/06 03:46:53;;;;;;;7.05;6.22;;;;;;;11.25;78.00;102677.91;5073113;28;20086;-80
2022/05/06 03:49:18;;;;;;;7.70;6.90;;;;;;;11.25;78.37;102681.38;5070666;28;20235;-79
2022/05/06 03:51:47;;;;;;;8.68;7.57;;;;;;;11.26;78.82;102677.91;5046972;28;20113;-80
2022/05/06 03:54:13;;;;;;;8.80;6.90;;;;;;;11.26;78.88;102677.00;5050997;28;20033;-80
2022/05/06 03:56:38;;;;;;;8.35;7.47;;;;;;;11.24;79.19;102678.78;5051552;28;20047;-79
2022/05/06 03:59:04;;;;;;;8.68;6.95;;;;;;;11.23;78.96;102677.06;5074825;28;20091;-80
2022/05/06 04:01:29;;;;;;;9.68;8.38;;;;;;;11.23;78.94;102679.69;5061133;28;20049;-80
2022/05/06 04:03:55;;;;;;;9.85;8.07;;;;;;;11.22;78.84;102683.19;5038137;28;20051;-80
2022/05/06 04:06:20;;;;;;;7.95;7.07;;;;;;;11.20;78.64;102680.59;5066379;28;20059;-79
2022/05/06 04:08:46;;;;;;;8.82;7.75;;;;;;;11.20;78.24;102683.22;5059979;28;20037;-80
2022/05/06 04:11:13;;;;;;;10.35;7.45;;;;;;;11.19;78.05;102684.13;5067017;28;20138;-80
2022/05/06 04:13:38;;;;;;;10.15;7.57;;;;;;;11.19;78.13;102684.13;5059223;28;20064;-80
2022/05/06 04:16:04;;;;;;;9.30;7.82;;;;;;;11.19;78.44;102688.47;5073533;28;20045;-80
2022/05/06 04:18:30;;;;;;;8.85;6.90;;;;;;;11.16;78.61;102692.00;5073112;28;20145;-80
2022/05/06 04:23:39;;;;;;;8.95;7.47;;;;;;;11.14;78.06;102688.53;5074823;28;20043;-80
2022/05/06 04:26:07;;;;;;;10.75;7.68;;;;;;;11.14;78.19;102685.94;5042170;28;20447;-80
2022/05/06 04:28:32;;;;;;;11.48;8.45;;;;;;;11.14;78.48;102680.69;5064867;28;20325;-80
2022/05/06 04:30:58;;;;;;;9.57;7.53;;;;;;;11.14;78.70;102685.94;5050466;28;20362;-79
2022/05/06 04:33:25;;;;;;;12.25;8.10;;;;;;;11.13;79.18;102685.06;5063966;28;20055;-80
2022/05/06 04:35:51;;;;;;;8.95;7.25;;;;;;;11.12;79.10;102687.72;5051264;28;20077;-80
2022/05/06 04:38:17;;;;;;;12.07;8.38;;;;;;;11.10;79.22;102698.22;5060445;28;20041;-79
2022/05/06 04:40:42;;;;;;;12.00;8.63;;;;;;;11.09;79.57;102687.72;5045489;28;20033;-79
2022/05/06 04:43:09;;;;;;;9.77;8.02;;;;;;;11.08;79.37;102707.00;5053976;28;20044;-80
2022/05/06 04:45:38;;;;;;;11.65;8.27;;;;;;;11.05;79.36;102702.63;5040180;28;20055;-79
2022/05/06 04:48:05;;;;;;;9.57;7.25;;;;;;;11.05;78.99;102707.88;5041087;28;20498;-80
2022/05/06 04:50:31;;;;;;;12.27;8.50;;;;;;;11.06;79.31;102700.88;5044609;28;20235;-80
2022/05/06 04:52:56;;;;;;;12.68;8.70;;;;;;;11.06;79.37;102706.13;5068052;28;20104;-80
2022/05/06 04:55:21;;;;;;;9.80;8.18;;;;;;;11.05;79.76;102704.41;5039717;28;20068;-80
2022/05/06 04:57:47;;;;;;;16.30;8.23;;;;;;;11.03;79.85;102706.19;5036036;28;20295;-80
2022/05/06 05:00:13;;;;;;;11.38;8.10;;;;;;;11.04;79.40;102713.13;5030801;28;20064;-80
2022/05/06 05:02:39;;;;;;;11.35;8.68;;;;;;;11.04;79.57;102715.75;5043253;28;20032;-80
2022/05/06 05:05:04;;;;;;;10.93;8.63;;;;;;;11.02;79.82;102717.53;5049956;28;20040;-80
2022/05/06 05:07:30;;;;;;;11.20;7.70;;;;;;;11.02;79.87;102717.53;5039035;28;20041;-80
2022/05/06 05:09:55;;;;;;;11.40;8.43;;;;;;;11.00;79.44;102709.69;5051748;28;20036;-80
2022/05/06 05:12:21;;;;;;;9.52;8.02;;;;;;;11.01;79.71;102711.44;5034666;28;20328;-80
2022/05/06 05:14:46;;;;;;;10.27;7.82;;;;;;;11.01;79.81;102710.59;5049621;28;20044;-80
2022/05/06 05:17:11;;;;;;;11.68;8.27;;;;;;;11.02;80.20;102721.03;5047081;28;20332;-80
2022/05/06 05:19:37;;;;;;;10.55;8.25;;;;;;;11.01;80.30;102721.06;5056037;28;20112;-80
2022/05/06 05:22:04;;;;;;;11.73;8.10;;;;;;;10.99;80.04;102718.47;5044503;28;20347;-80
2022/05/06 05:24:30;;;;;;;7.68;6.35;;;;;;;11.02;79.61;102717.53;5048600;28;20275;-80
2022/05/06 05:26:55;;;;;;;9.02;7.20;;;;;;;11.01;79.28;102715.81;5048777;28;20312;-80
2022/05/06 05:29:20;;;;;;;10.23;8.07;;;;;;;11.01;78.83;102716.69;5050720;28;20048;-79
2022/05/06 05:31:47;;;;;;;13.32;9.05;;;;;;;11.02;79.15;102721.03;5042068;28;20109;-80
2022/05/06 05:34:12;;;;;;;16.75;10.00;;;;;;;11.02;79.69;102721.03;5054504;28;20167;-80
2022/05/06 05:36:37;;;;;;;12.07;9.63;;;;;;;11.02;80.11;102722.78;5050754;28;20044;-80
2022/05/06 05:39:03;;;;;;;13.57;9.15;;;;;;;11.02;80.36;102722.78;5038377;28;20032;-79
2022/05/06 05:41:28;;;;;;;12.25;9.20;;;;;;;11.01;79.78;102721.06;5051942;28;20045;-80
2022/05/06 05:49:21;;;;;;;11.90;8.80;;;;;;;10.99;78.96;102728.06;5052030;28;20044;-79
2022/05/06 05:51:47;;;;;;;14.00;10.23;;;;;;;11.00;79.35;102719.31;5037290;28;20344;-80
2022/05/06 05:54:14;;;;;;;16.10;9.88;;;;;;;10.99;79.69;102721.09;5046490;28;20045;-80
2022/05/06 05:56:40;;;;;;;16.38;10.13;;;;;;;11.00;80.03;102729.81;5055387;28;20107;-80
2022/05/06 05:59:05;;;;;;;15.63;10.95;;;;;;;10.99;80.76;102728.06;5025364;28;20217;-79
2022/05/06 06:01:30;;;;;;;28.30;12.43;;;;;;;10.92;81.58;102730.75;5052916;28;20328;-79
2022/05/06 06:03:56;;;;;;;17.58;12.02;;;;;;;10.92;81.64;102737.78;5054881;28;20045;-79
2022/05/06 06:06:22;;;;;;;15.23;10.73;;;;;;;10.92;81.96;102724.66;5051698;28;20300;-80
2022/05/06 06:08:47;;;;;;;12.98;9.45;;;;;;;10.93;81.69;102731.63;5044841;28;20037;-79
2022/05/06 06:11:12;;;;;;;13.93;9.88;;;;;;;10.91;81.64;102730.78;5060581;28;20031;-79
2022/05/06 06:13:38;;;;;;;12.63;9.68;;;;;;;10.90;80.88;102731.69;5050690;28;20045;-79
2022/05/06 06:16:04;;;;;;;12.25;9.73;;;;;;;10.91;80.51;102734.28;5049487;28;20377;-79
2022/05/06 06:18:29;;;;;;;15.23;10.48;;;;;;;10.92;80.74;102735.16;5044782;28;20032;-79
2022/05/06 06:20:56;;;;;;;14.15;10.05;;;;;;;10.92;81.17;102733.38;5049625;28;20032;-79
2022/05/06 06:23:21;;;;;;;12.25;9.57;;;;;;;10.92;81.07;102735.16;5047219;28;20089;-79
2022/05/06 06:25:47;;;;;;;15.32;10.52;;;;;;;10.92;80.60;102741.25;5034471;28;20292;-79
2022/05/06 06:28:12;;;;;;;15.93;11.05;;;;;;;10.91;81.20;102741.25;5046143;28;20039;-79
2022/05/06 06:30:38;;;;;;;14.30;10.18;;;;;;;10.90;81.48;102742.16;5043982;28;20041;-79
2022/05/06 06:33:03;;;;;;;14.48;9.73;;;;;;;10.89;81.55;102746.53;5045903;28;20040;-79
2022/05/06 06:35:29;;;;;;;12.77;9.85;;;;;;;10.87;81.86;102756.16;5042260;28;20063;-79
2022/05/06 06:37:54;;;;;;;12.60;9.00;;;;;;;10.87;81.68;102753.53;5048165;28;20041;-79
2022/05/06 06:40:20;;;;;;;10.15;8.27;;;;;;;10.87;81.90;102760.53;5046102;28;20063;-79
2022/05/06 06:42:46;;;;;;;8.50;7.47;;;;;;;10.85;81.79;102763.19;5044891;28;20044;-79
2022/05/06 06:45:11;;;;;;;9.65;7.80;;;;;;;10.86;81.35;102753.53;5027121;28;20072;-79
2022/05/06 06:47:37;;;;;;;10.13;7.78;;;;;;;10.86;81.20;102749.19;5029599;28;20103;-79
2022/05/06 06:50:03;;;;;;;11.82;8.35;;;;;;;10.87;81.39;102756.16;5052013;28;20114;-79
2022/05/06 06:52:28;;;;;;;9.13;7.32;;;;;;;10.88;80.97;102752.66;5036324;28;20048;-79
2022/05/06 06:54:54;;;;;;;14.13;10.57;;;;;;;10.87;81.29;102758.78;5043830;28;20049;-79
2022/05/06 06:57:19;;;;;;;16.17;10.98;;;;;;;10.86;81.75;102757.06;5027686;28;20056;-79
2022/05/06 06:59:46;;;;;;;13.07;10.35;;;;;;;10.86;81.90;102754.44;5038703;28;20053;-79
2022/05/06 07:02:11;;;;;;;13.48;10.18;;;;;;;10.87;81.98;102761.41;5055951;28;20122;-79
2022/05/06 07:04:37;;;;;;;11.27;9.15;;;;;;;10.88;81.41;102757.91;5054790;28;20049;-79
2022/05/06 07:12:30;;;;;;;18.02;11.02;;;;;;;10.90;81.79;102761.38;5040922;28;20048;-79
2022/05/06 07:14:55;;;;;;;14.88;10.73;;;;;;;10.92;81.83;102761.38;5052952;28;20275;-79
2022/05/06 07:17:21;;;;;;;14.93;10.90;;;;;;;10.93;82.00;102755.22;5027123;28;20041;-79
2022/05/06 07:19:47;;;;;;;13.20;10.43;;;;;;;10.96;81.99;102760.44;5049356;28;20037;-80
2022/05/06 07:22:13;;;;;;;14.82;10.55;;;;;;;10.96;81.83;102755.19;5044953;28;20028;-80
2022/05/06 07:24:38;;;;;;;19.73;12.73;;;;;;;10.97;81.38;102761.28;5037504;28;20027;-80
2022/05/06 07:27:04;;;;;;;19.23;11.85;;;;;;;10.99;82.15;102756.91;5048174;28;20075;-80
2022/05/06 07:29:31;;;;;;;15.80;11.73;;;;;;;11.00;82.14;102754.25;5058099;28;20032;-80
2022/05/06 07:31:56;;;;;;;13.65;10.50;;;;;;;11.02;82.04;102756.88;5035699;28;20315;-80
2022/05/06 07:34:22;;;;;;;15.70;11.98;;;;;;;11.02;82.72;102746.38;5053772;28;20040;-80
2022/05/06 07:36:47;;;;;;;17.33;11.15;;;;;;;11.05;82.59;102749.84;5056161;28;20086;-80
2022/05/06 07:39:14;;;;;;;16.60;10.95;;;;;;;11.10;82.52;102750.66;5052864;28;20045;-80
2022/05/06 07:41:40;;;;;;;15.70;10.82;;;;;;;11.14;82.49;102748.84;5054690;28;20279;-79
2022/05/06 07:44:07;;;;;;;11.90;9.48;;;;;;;11.18;82.23;102747.94;5050774;28;20029;-79
2022/05/06 07:46:33;;;;;;;16.65;10.68;;;;;;;11.22;81.93;102751.38;5056654;28;20083;-80
2022/05/06 07:48:59;;;;;;;19.35;12.00;;;;;;;11.24;81.18;102750.50;5050268;28;20080;-80
2022/05/06 07:51:25;;;;;;;17.08;10.77;;;;;;;11.27;81.77;102745.19;5054039;28;20044;-80
2022/05/06 07:53:52;;;;;;;15.18;10.88;;;;;;;11.30;81.76;102739.91;5054261;28;20274;-80
2022/05/06 07:56:20;;;;;;;14.13;9.95;;;;;;;11.33;81.38;102739.88;5052512;28;20056;-79
2022/05/06 07:58:46;;;;;;;17.05;11.00;;;;;;;11.39;81.12;102738.03;5050191;28;20030;-80
2022/05/06 08:01:12;;;;;;;17.33;11.18;;;;;;;11.41;81.20;102733.66;5046870;28;20093;-80
2022/05/06 08:06:21;;;;;;;18.42;11.02;;;;;;;11.50;80.77;102730.91;5053625;28;20136;-80
2022/05/06 08:08:47;;;;;;;15.63;9.45;;;;;;;11.55;81.13;102728.19;5051937;28;20107;-79
2022/05/06 08:11:12;;;;;;;13.05;9.52;;;;;;;11.61;81.35;102725.50;5044935;28;20021;-80
2022/05/06 08:13:38;;;;;;;12.98;8.50;;;;;;;11.66;81.31;102721.03;5053902;28;20068;-80
2022/05/06 08:16:03;;;;;;;11.82;9.20;;;;;;;11.71;81.41;102724.44;5035613;28;20033;-80
2022/05/06 08:18:29;;;;;;;10.88;8.98;;;;;;;11.75;80.92;102720.91;5052120;28;20037;-79
2022/05/06 08:20:54;;;;;;;10.43;8.30;;;;;;;11.81;80.65;102714.69;5058749;28;20090;-80
2022/05/06 08:23:21;;;;;;;15.77;9.63;;;;;;;11.86;80.42;102720.72;5058655;28;20259;-80
2022/05/06 08:25:47;;;;;;;10.20;8.20;;;;;;;11.91;80.57;102713.66;5057768;28;20025;-80
2022/05/06 08:28:13;;;;;;;11.95;8.80;;;;;;;11.96;80.00;102714.47;5053898;28;20100;-80
2022/05/06 08:30:39;;;;;;;16.63;10.20;;;;;;;12.03;80.22;102718.72;5059291;28;20041;-80
2022/05/06 08:33:05;;;;;;;19.95;11.23;;;;;;;12.10;80.08;102722.13;5057315;28;20079;-79
2022/05/06 08:35:31;;;;;;;21.42;11.80;;;;;;;12.17;80.42;102712.34;5057079;28;20064;-80
2022/05/06 08:37:58;;;;;;;17.60;11.05;;;;;;;12.22;80.38;102711.38;5057873;28;20044;-80
2022/05/06 08:40:26;;;;;;;22.25;12.95;;;;;;;12.33;80.86;102715.59;5057623;28;20044;-80
2022/05/06 08:42:52;;;;;;;24.00;14.23;;;;;;;12.38;80.23;102714.59;5058307;28;20025;-80
2022/05/06 08:50:58;;;;;;;21.05;12.90;;;;;;;12.63;80.28;102708.88;5056677;28;20056;-80
2022/05/06 08:53:26;;;;;;;24.98;14.73;;;;;;;12.71;80.65;102703.47;5058732;28;20083;-80
2022/05/06 08:55:55;;;;;;;26.85;15.38;;;;;;;12.79;80.73;102702.44;5061583;28;20370;-80
2022/05/06 08:58:22;;;;;;;19.42;13.50;;;;;;;12.85;79.38;102710.19;5058865;28;20027;-80
2022/05/06 09:00:48;;;;;;;19.05;13.20;;;;;;;12.91;79.04;102705.69;5078420;28;20074;-80
2022/05/06 09:03:15;;;;;;;24.92;12.65;;;;;;;12.95;78.57;102705.63;5045238;28;20295;-80
2022/05/06 09:05:56;;;;;;;17.70;12.45;;;;;;;13.01;78.83;102702.00;5054759;28;20051;-80
2022/05/06 09:08:22;;;;;;;14.50;11.57;;;;;;;13.09;78.80;102694.78;5059232;28;20246;-80
2022/05/06 09:10:59;;;;;;;21.13;13.35;;;;;;;13.13;77.97;102699.06;5060288;28;20052;-80
2022/05/06 09:13:25;;;;;;;18.88;12.23;;;;;;;13.18;78.09;102705.09;5076085;28;20040;-80
2022/05/06 09:18:36;;;;;;;16.75;11.98;;;;;;;13.27;77.14;102703.19;5046398;28;20232;-80
2022/05/06 09:21:11;;;;;;;18.67;11.40;;;;;;;13.37;77.33;102707.34;5077543;28;20037;-80
2022/05/06 09:23:36;;;;;;;18.73;10.30;;;;;;;13.41;76.85;102711.66;5067938;28;20255;-80
2022/05/06 09:26:02;;;;;;;20.58;11.77;;;;;;;13.48;75.22;102702.75;5065300;28;20055;-80
2022/05/06 09:28:32;;;;;;;15.10;10.05;;;;;;;13.53;75.86;102705.25;5068069;28;20067;-80
2022/05/06 09:31:10;;;;;;;14.30;10.45;;;;;;;13.62;76.03;102703.28;5072661;28;20044;-80
2022/05/06 09:33:41;;;;;;;15.25;9.27;;;;;;;13.68;75.94;102698.75;5059105;28;20047;-80
2022/05/06 09:36:33;;;;;;;20.80;11.52;;;;;;;13.74;75.57;102699.47;5074055;28;20037;-80
2022/05/06 09:39:08;;;;;;;17.45;10.65;;;;;;;13.87;75.24;102704.44;5061246;28;20052;-80
2022/05/06 09:41:36;;;;;;;16.27;10.63;;;;;;;13.95;74.20;102703.34;5068525;28;20251;-80
2022/05/06 09:44:04;;;;;;;14.20;10.45;;;;;;;14.03;73.89;102697.88;5059036;28;20062;-80
2022/05/06 09:46:29;;;;;;;10.57;9.40;;;;;;;14.05;74.31;102700.47;5058782;28;20040;-80
2022/05/06 09:48:59;;;;;;;12.65;9.43;;;;;;;14.09;75.03;102695.09;5076713;28;20060;-80
2022/05/06 09:51:26;;;;;;;15.25;9.40;;;;;;;14.14;74.66;102700.25;5073169;28;20036;-80
2022/05/06 09:53:52;;;;;;;18.55;10.73;;;;;;;14.18;74.42;102688.72;5045596;28;20345;-80
2022/05/06 09:56:20;;;;;;;15.73;10.70;;;;;;;14.25;74.63;102692.06;5058069;28;20075;-80
2022/05/06 09:58:46;;;;;;;15.65;10.40;;;;;;;14.35;73.14;102683.88;5076530;28;20110;-80
2022/05/06 10:01:13;;;;;;;13.00;10.02;;;;;;;14.40;72.91;102689.00;5076793;28;20347;-80
2022/05/06 10:03:39;;;;;;;10.40;9.43;;;;;;;14.44;72.59;102689.78;5076859;28;20040;-80
2022/05/06 10:06:08;;;;;;;14.68;9.60;;;;;;;14.49;71.89;102690.53;5076466;28;20098;-80
2022/05/06 10:08:35;;;;;;;14.55;10.55;;;;;;;14.57;71.12;102688.53;5057592;28;20063;-80
2022/05/06 10:11:02;;;;;;;12.82;9.30;;;;;;;14.63;71.32;102684.91;5059401;28;20103;-80
2022/05/06 10:13:30;;;;;;;13.18;11.45;;;;;;;14.69;71.86;102690.00;5048989;28;20064;-80
2022/05/06 10:15:57;;;;;;;13.15;9.88;;;;;;;14.67;71.25;102683.91;5076792;28;20344;-80
2022/05/06 10:18:55;;;;;;;13.80;10.52;;;;;;;14.67;70.57;102679.50;5051427;28;20180;-80
2022/05/06 10:21:47;;;;;;;16.27;11.60;;;;;;;14.76;71.68;102676.56;5009109;28;20048;-79
2022/05/06 10:24:16;;;;;;;16.95;11.95;;;;;;;14.76;71.02;102679.22;5074140;28;20089;-80
2022/05/06 10:26:48;;;;;;;15.13;11.10;;;;;;;14.80;71.39;102680.00;5058702;28;20032;-80
2022/05/06 10:32:56;;;;;;;14.77;9.93;;;;;;;14.92;69.99;102677.00;5074229;28;20035;-80
2022/05/06 10:35:38;;;;;;;12.25;9.65;;;;;;;14.98;71.65;102674.16;5079780;28;20040;-80
2022/05/06 10:38:20;;;;;;;18.00;9.27;;;;;;;15.13;71.13;102679.91;5073897;28;20178;-80
2022/05/06 10:40:52;;;;;;;9.95;8.60;;;;;;;15.15;71.05;102668.41;5057911;28;20075;-80
2022/05/06 10:43:50;;;;;;;12.95;9.32;;;;;;;15.20;69.42;102662.97;5061955;28;20044;-80
2022/05/06 10:46:35;;;;;;;14.07;9.50;;;;;;;15.24;67.94;102666.38;5024978;28;20060;-80
2022/05/06 10:49:35;;;;;;;13.68;9.73;;;;;;;15.29;67.74;102662.66;5080363;28;20024;-80
2022/05/06 10:52:15;;;;;;;11.00;9.70;;;;;;;15.31;67.98;102673.19;5077952;28;20039;-80
2022/05/06 10:54:42;;;;;;;10.15;9.18;;;;;;;15.33;68.46;102666.06;5061886;28;20235;-80
2022/05/06 10:57:08;;;;;;;14.77;10.85;;;;;;;15.34;69.63;102667.81;5077631;28;20415;-80
2022/05/06 10:59:52;;;;;;;14.55;11.27;;;;;;;15.38;68.84;102669.44;5061721;28;20240;-80
2022/05/06 11:02:32;;;;;;;12.32;10.88;;;;;;;15.43;68.63;102672.81;5079569;28;20348;-80
2022/05/06 11:04:59;;;;;;;12.80;9.82;;;;;;;15.50;66.81;102655.84;5071819;28;20032;-80
2022/05/06 11:07:26;;;;;;;16.23;10.68;;;;;;;15.57;67.20;102666.19;5061602;28;20037;-80
2022/05/06 11:09:52;;;;;;;11.77;10.15;;;;;;;15.63;68.61;102658.09;5062742;28;20161;-81
2022/05/06 11:12:34;;;;;;;14.43;10.77;;;;;;;15.71;69.05;102664.81;5079187;28;20344;-80
2022/05/06 11:15:02;;;;;;;14.20;10.60;;;;;;;15.77;68.66;102655.91;5079495;28;20040;-80
2022/05/06 11:17:27;;;;;;;13.68;11.15;;;;;;;15.81;67.73;102648.69;5079351;28;20025;-80
2022/05/06 11:19:53;;;;;;;14.02;9.70;;;;;;;15.85;69.06;102651.19;5045737;28;20059;-80
2022/05/06 11:22:20;;;;;;;15.20;10.20;;;;;;;15.95;67.75;102645.59;5061742;28;20089;-80
2022/05/06 11:24:46;;;;;;;10.98;9.25;;;;;;;16.04;66.61;102646.13;5062016;28;20383;-80
2022/05/06 11:27:17;;;;;;;17.60;9.07;;;;;;;16.09;67.05;102648.63;5075926;28;20349;-80
2022/05/06 11:29:55;;;;;;;12.15;9.55;;;;;;;16.15;65.57;102643.09;5048922;28;20117;-80
2022/05/06 11:32:22;;;;;;;12.80;9.65;;;;;;;16.14;66.46;102646.69;5079875;28;20236;-80
2022/05/06 11:35:06;;;;;;;11.45;8.75;;;;;;;16.17;65.91;102649.22;5062026;28;20040;-80
2022/05/06 11:37:34;;;;;;;10.93;9.20;;;;;;;16.19;64.90;102636.81;5071344;28;20280;-80
2022/05/06 11:42:43;;;;;;;9.80;8.80;;;;;;;16.22;66.11;102634.03;5079477;28;20059;-80
2022/05/06 11:48:08;;;;;;;10.30;9.20;;;;;;;16.35;66.65;102642.41;5079612;28;20102;-80
2022/05/06 11:50:35;;;;;;;13.50;9.35;;;;;;;16.41;64.55;102636.91;5061124;28;20368;-80
2022/05/06 11:53:02;;;;;;;12.23;9.30;;;;;;;16.57;65.97;102642.50;5068303;28;20020;-80
2022/05/06 11:55:29;;;;;;;10.35;9.35;;;;;;;16.59;64.31;102635.34;5078497;28;20036;-80
2022/05/06 11:57:56;;;;;;;14.98;10.13;;;;;;;16.67;64.08;102633.28;5078490;28;20266;-80